Time;durP1;ratioP1;P1;durP2;ratioP2;P2;SDS_P1;SDS_P2;PMS_P1;PMS_P2;Temp;Humidity;BMP_temperature;BMP_pressure;BME280_temperature;BME280_humidity;BME280_pressure;Samples;Min_cycle;Max_cycle;Signal;HPM_P1;HPM_P2
2022/10/27 00:01:34;;;;;;;51.35;18.13;;;;;;;;;;6311482;22;20053;-81
2022/10/27 00:04:00;;;;;;;37.15;16.35;;;;;;;;;;6311592;22;20011;-82
2022/10/27 00:06:26;;;;;;;43.97;14.23;;;;;;;;;;6311628;22;20335;-81
2022/10/27 00:08:52;;;;;;;29.65;15.13;;;;;;;;;;6311615;22;20007;-85
2022/10/27 00:11:18;;;;;;;38.28;13.45;;;;;;;;;;6310785;22;20060;-81
2022/10/27 00:13:44;;;;;;;35.25;10.93;;;;;;;;;;6311729;22;20009;-82
2022/10/27 00:16:14;;;;;;;41.00;12.02;;;;;;;;;;6311546;22;20002;-81
2022/10/27 00:18:40;;;;;;;31.95;11.95;;;;;;;;;;6311255;22;20370;-84
2022/10/27 00:21:07;;;;;;;34.15;11.05;;;;;;;;;;6310669;22;20003;-81
2022/10/27 00:23:34;;;;;;;40.20;12.88;;;;;;;;;;6312124;22;20011;-82
2022/10/27 00:26:00;;;;;;;37.08;13.18;;;;;;;;;;6313696;22;20030;-81
2022/10/27 00:28:27;;;;;;;62.92;12.98;;;;;;;;;;6314094;22;20003;-81
2022/10/27 00:31:01;;;;;;;33.22;12.73;;;;;;;;;;6313415;22;20007;-82
2022/10/27 00:33:27;;;;;;;86.63;14.27;;;;;;;;;;6312514;22;20002;-81
2022/10/27 00:35:53;;;;;;;29.95;12.07;;;;;;;;;;6312481;22;20093;-81
2022/10/27 00:38:20;;;;;;;63.38;12.00;;;;;;;;;;6313361;22;20003;-82
2022/10/27 00:40:46;;;;;;;50.22;11.88;;;;;;;;;;6313348;22;20007;-83
2022/10/27 00:43:23;;;;;;;94.97;13.05;;;;;;;;;;6313280;22;20018;-85
2022/10/27 00:45:49;;;;;;;83.22;13.02;;;;;;;;;;6312376;22;20492;-82
2022/10/27 00:48:15;;;;;;;124.97;13.70;;;;;;;;;;6312206;22;20427;-81
2022/10/27 00:50:41;;;;;;;32.63;11.10;;;;;;;;;;6313121;22;20002;-81
2022/10/27 00:53:08;;;;;;;48.30;12.52;;;;;;;;;;6313198;22;20007;-83
2022/10/27 00:55:37;;;;;;;47.38;10.48;;;;;;;;;;6312601;22;20371;-82
2022/10/27 00:58:06;;;;;;;55.35;9.48;;;;;;;;;;6313132;22;20041;-81
2022/10/27 01:00:32;;;;;;;68.63;9.57;;;;;;;;;;6312580;22;20003;-81
2022/10/27 01:02:58;;;;;;;49.33;8.95;;;;;;;;;;6312261;22;20021;-81
2022/10/27 01:05:27;;;;;;;87.47;9.85;;;;;;;;;;6312600;22;20003;-81
2022/10/27 01:07:55;;;;;;;108.10;10.98;;;;;;;;;;6312320;22;20007;-81
2022/10/27 01:10:22;;;;;;;81.07;9.55;;;;;;;;;;6312230;22;20022;-80
2022/10/27 01:12:48;;;;;;;71.97;9.80;;;;;;;;;;6339972;22;19995;-81
2022/10/27 01:15:14;;;;;;;107.43;11.10;;;;;;;;;;6312902;22;20006;-81
2022/10/27 01:17:40;;;;;;;112.97;12.02;;;;;;;;;;6312890;22;20010;-81
2022/10/27 01:20:09;;;;;;;98.20;9.75;;;;;;;;;;6312851;22;20379;-81
2022/10/27 01:22:45;;;;;;;100.82;9.57;;;;;;;;;;6340300;22;20011;-81
2022/10/27 01:25:17;;;;;;;76.60;8.85;;;;;;;;;;6311744;22;20089;-82
2022/10/27 01:27:58;;;;;;;79.28;8.10;;;;;;;;;;6312780;22;20473;-82
2022/10/27 01:30:28;;;;;;;95.65;9.32;;;;;;;;;;6312730;22;20011;-81
2022/10/27 01:33:14;;;;;;;73.07;8.73;;;;;;;;;;6312734;22;19999;-82
2022/10/27 01:35:59;;;;;;;23.63;7.63;;;;;;;;;;6312833;22;19998;-80
2022/10/27 01:38:25;;;;;;;34.83;8.77;;;;;;;;;;6311757;22;20076;-82
2022/10/27 01:40:56;;;;;;;44.60;8.50;;;;;;;;;;6312298;22;20003;-82
2022/10/27 01:43:24;;;;;;;45.40;8.57;;;;;;;;;;6312741;22;20010;-81
2022/10/27 01:45:50;;;;;;;39.90;9.15;;;;;;;;;;6312187;22;20010;-82
2022/10/27 01:48:17;;;;;;;83.97;11.07;;;;;;;;;;6312048;22;20019;-82
2022/10/27 01:50:43;;;;;;;54.67;9.88;;;;;;;;;;6312406;22;20010;-83
2022/10/27 01:53:11;;;;;;;59.60;10.52;;;;;;;;;;6340499;22;20021;-82
2022/10/27 01:55:37;;;;;;;46.92;9.95;;;;;;;;;;6313331;22;20056;-81
2022/10/27 01:58:06;;;;;;;61.95;10.00;;;;;;;;;;6312187;22;20093;-83
2022/10/27 02:00:33;;;;;;;37.13;9.60;;;;;;;;;;6311613;22;20003;-83
2022/10/27 02:03:11;;;;;;;58.70;10.10;;;;;;;;;;6339457;22;20006;-83
2022/10/27 02:05:46;;;;;;;54.88;9.80;;;;;;;;;;6312379;22;19998;-82
2022/10/27 02:08:31;;;;;;;57.22;10.45;;;;;;;;;;6311957;22;20013;-82
2022/10/27 02:11:03;;;;;;;83.18;10.05;;;;;;;;;;6312573;22;19999;-83
2022/10/27 02:13:30;;;;;;;59.33;11.43;;;;;;;;;;6312627;22;20085;-82
2022/10/27 02:15:59;;;;;;;50.05;11.13;;;;;;;;;;6312453;22;20424;-83
2022/10/27 02:18:30;;;;;;;37.13;10.63;;;;;;;;;;6339640;22;20014;-83
2022/10/27 02:20:59;;;;;;;46.22;11.07;;;;;;;;;;6340826;22;19999;-83
2022/10/27 02:23:25;;;;;;;105.25;11.90;;;;;;;;;;6312240;22;20011;-86
2022/10/27 02:26:02;;;;;;;80.68;12.05;;;;;;;;;;6312409;22;20003;-83
2022/10/27 02:28:32;;;;;;;68.57;11.18;;;;;;;;;;6311741;22;20022;-84
2022/10/27 02:30:59;;;;;;;84.03;10.63;;;;;;;;;;6312107;22;20006;-84
2022/10/27 02:33:25;;;;;;;59.38;12.63;;;;;;;;;;6311743;22;20003;-82
2022/10/27 02:35:52;;;;;;;65.07;10.70;;;;;;;;;;6312017;22;20423;-84
2022/10/27 02:38:18;;;;;;;31.65;9.95;;;;;;;;;;6311443;22;20332;-81
2022/10/27 02:40:45;;;;;;;53.90;11.35;;;;;;;;;;6312373;22;20007;-82
2022/10/27 02:43:11;;;;;;;55.97;10.10;;;;;;;;;;6311654;22;20010;-81
2022/10/27 02:45:37;;;;;;;57.17;10.52;;;;;;;;;;6312055;22;20375;-83
2022/10/27 02:48:03;;;;;;;66.30;11.13;;;;;;;;;;6312265;22;20313;-83
2022/10/27 02:50:29;;;;;;;45.60;9.98;;;;;;;;;;6312243;22;20060;-82
2022/10/27 02:52:55;;;;;;;64.60;10.77;;;;;;;;;;6312327;22;20038;-82
2022/10/27 02:55:21;;;;;;;57.03;10.50;;;;;;;;;;6312237;22;20484;-81
2022/10/27 02:57:47;;;;;;;33.90;10.32;;;;;;;;;;6339396;22;20080;-81
2022/10/27 03:00:13;;;;;;;43.17;9.93;;;;;;;;;;6311816;22;20005;-82
2022/10/27 03:02:39;;;;;;;61.33;10.27;;;;;;;;;;6310902;22;20007;-82
2022/10/27 03:05:06;;;;;;;46.15;10.52;;;;;;;;;;6311903;22;20011;-81
2022/10/27 03:07:32;;;;;;;65.95;10.68;;;;;;;;;;6312171;22;20010;-80
2022/10/27 03:09:58;;;;;;;55.45;10.73;;;;;;;;;;6311099;22;20024;-80
2022/10/27 03:12:24;;;;;;;94.72;11.43;;;;;;;;;;6340324;22;20009;-82
2022/10/27 03:14:50;;;;;;;35.83;10.50;;;;;;;;;;6312271;22;20007;-81
2022/10/27 03:17:16;;;;;;;52.53;11.15;;;;;;;;;;6311943;22;20033;-80
2022/10/27 03:19:42;;;;;;;51.65;9.80;;;;;;;;;;6312236;22;20343;-82
2022/10/27 03:22:08;;;;;;;35.83;10.20;;;;;;;;;;6311345;22;20007;-81
2022/10/27 03:24:34;;;;;;;30.23;9.55;;;;;;;;;;6311535;22;20014;-85
2022/10/27 03:27:00;;;;;;;59.22;10.35;;;;;;;;;;6312155;22;20353;-81
2022/10/27 03:29:26;;;;;;;44.90;10.85;;;;;;;;;;6312172;22;20381;-81
2022/10/27 03:31:52;;;;;;;43.03;10.40;;;;;;;;;;6340342;22;20412;-81
2022/10/27 03:34:19;;;;;;;57.97;11.18;;;;;;;;;;6311958;22;20052;-81
2022/10/27 03:36:45;;;;;;;56.47;10.13;;;;;;;;;;6311929;22;20006;-86
2022/10/27 03:39:11;;;;;;;40.88;9.27;;;;;;;;;;6339726;22;19995;-83
2022/10/27 03:41:37;;;;;;;73.45;10.15;;;;;;;;;;6313087;22;20015;-83
2022/10/27 03:44:04;;;;;;;38.10;8.98;;;;;;;;;;6312538;22;20091;-83
2022/10/27 03:46:30;;;;;;;74.07;10.90;;;;;;;;;;6311492;22;20009;-84
2022/10/27 03:48:56;;;;;;;40.38;9.95;;;;;;;;;;6311333;22;20047;-84
2022/10/27 03:51:22;;;;;;;30.05;10.45;;;;;;;;;;6311683;22;19998;-83
2022/10/27 03:53:48;;;;;;;60.42;10.82;;;;;;;;;;6339673;22;20007;-84
2022/10/27 03:56:15;;;;;;;61.80;10.40;;;;;;;;;;6311618;22;19999;-84
2022/10/27 03:58:41;;;;;;;63.90;11.02;;;;;;;;;;6311519;22;20003;-83
2022/10/27 04:01:07;;;;;;;47.10;11.55;;;;;;;;;;6311582;22;20003;-82
2022/10/27 04:03:33;;;;;;;41.92;10.80;;;;;;;;;;6311286;22;20102;-81
2022/10/27 04:05:59;;;;;;;39.67;10.18;;;;;;;;;;6311417;22;19998;-83
2022/10/27 04:08:25;;;;;;;61.47;12.00;;;;;;;;;;6311453;22;20006;-83
2022/10/27 04:10:51;;;;;;;49.60;10.55;;;;;;;;;;6311439;22;20424;-83
2022/10/27 04:13:17;;;;;;;33.47;10.02;;;;;;;;;;6311331;22;20003;-81
2022/10/27 04:15:43;;;;;;;45.72;9.93;;;;;;;;;;6311267;22;20010;-83
2022/10/27 04:18:10;;;;;;;70.90;11.82;;;;;;;;;;6311162;22;20007;-82
2022/10/27 04:20:36;;;;;;;46.80;11.18;;;;;;;;;;6311450;22;20002;-81
2022/10/27 04:23:02;;;;;;;49.08;11.05;;;;;;;;;;6311295;22;20033;-83
2022/10/27 04:25:28;;;;;;;54.53;10.10;;;;;;;;;;6311378;22;20010;-83
2022/10/27 04:28:01;;;;;;;55.88;9.45;;;;;;;;;;6339012;22;20005;-83
2022/10/27 04:30:28;;;;;;;38.08;9.57;;;;;;;;;;6311354;22;20090;-83
2022/10/27 04:32:54;;;;;;;52.95;10.68;;;;;;;;;;6339052;22;20026;-83
2022/10/27 04:35:20;;;;;;;26.83;10.18;;;;;;;;;;6311397;22;20005;-82
2022/10/27 04:37:46;;;;;;;59.42;9.73;;;;;;;;;;6311252;22;20091;-80
2022/10/27 04:40:12;;;;;;;33.90;9.68;;;;;;;;;;6311236;22;20003;-83
2022/10/27 04:42:43;;;;;;;56.50;10.10;;;;;;;;;;6311146;22;20335;-83
2022/10/27 04:45:09;;;;;;;40.80;10.18;;;;;;;;;;6311249;22;20003;-86
2022/10/27 04:47:35;;;;;;;84.90;10.98;;;;;;;;;;6311198;22;20017;-83
2022/10/27 04:50:01;;;;;;;57.33;8.93;;;;;;;;;;6338786;22;20034;-84
2022/10/27 04:52:27;;;;;;;55.72;9.25;;;;;;;;;;6311002;22;20002;-82
2022/10/27 05:25:31;;;;;;;;;;;;;;;;;;;;;
2022/10/27 14:56:21;;;;;;;40.40;18.35;;;;;;;;;;6230106;22;21369;-95
2022/10/27 14:58:49;;;;;;;65.18;19.65;;;;;;;;;;6318208;22;20062;-91
2022/10/27 15:01:19;;;;;;;52.95;19.15;;;;;;;;;;6301153;22;20007;-91
2022/10/27 15:03:48;;;;;;;76.60;19.70;;;;;;;;;;6285621;22;20011;-91
2022/10/27 15:06:19;;;;;;;78.03;19.15;;;;;;;;;;6284984;22;20052;-94
2022/10/27 15:08:48;;;;;;;72.57;18.92;;;;;;;;;;6282948;22;20025;-94
2022/10/27 15:11:22;;;;;;;106.97;20.92;;;;;;;;;;6282591;22;20003;-91
2022/10/27 15:13:49;;;;;;;44.75;20.30;;;;;;;;;;6282563;22;20010;-90
2022/10/27 15:16:25;;;;;;;36.55;18.58;;;;;;;;;;6283277;22;20007;-92
2022/10/27 15:18:52;;;;;;;56.75;19.45;;;;;;;;;;6283595;22;20003;-91
2022/10/27 15:21:28;;;;;;;80.97;18.67;;;;;;;;;;6283127;22;20007;-94
2022/10/27 15:24:01;;;;;;;51.53;19.17;;;;;;;;;;6283595;22;20030;-93
2022/10/27 15:26:28;;;;;;;72.07;18.52;;;;;;;;;;6283452;22;19999;-92
2022/10/27 15:28:54;;;;;;;48.50;17.70;;;;;;;;;;6284081;22;20007;-93
2022/10/27 15:31:21;;;;;;;58.25;18.33;;;;;;;;;;6283587;22;20110;-95
2022/10/27 15:33:51;;;;;;;48.45;16.33;;;;;;;;;;6285078;22;20008;-93
2022/10/27 15:36:23;;;;;;;50.15;17.33;;;;;;;;;;6283934;22;20010;-95
2022/10/27 15:38:49;;;;;;;34.42;16.83;;;;;;;;;;6282567;22;20070;-95
2022/10/27 15:41:27;;;;;;;67.95;17.05;;;;;;;;;;6282882;22;20003;-95
2022/10/27 15:44:02;;;;;;;55.97;19.45;;;;;;;;;;6281670;22;20145;-94
2022/10/27 15:46:32;;;;;;;54.03;20.13;;;;;;;;;;6283417;22;19999;-93
2022/10/27 15:49:01;;;;;;;87.70;20.63;;;;;;;;;;6285693;22;20462;-93
2022/10/27 15:54:58;;;;;;;54.08;17.95;;;;;;;;;;6278055;22;20013;-94
2022/10/27 15:57:35;;;;;;;58.78;16.73;;;;;;;;;;6304152;22;20023;-94
2022/10/27 16:00:14;;;;;;;57.28;16.90;;;;;;;;;;6283267;22;20007;-96
2022/10/27 16:06:19;;;;;;;114.32;21.52;;;;;;;;;;6312184;22;20014;-96
2022/10/27 16:08:50;;;;;;;110.60;19.00;;;;;;;;;;6216898;22;20007;-94
2022/10/27 16:11:20;;;;;;;60.78;19.92;;;;;;;;;;6283872;22;20003;-95
2022/10/27 16:17:24;;;;;;;65.35;17.02;;;;;;;;;;6188337;23;20061;-94
2022/10/27 16:23:12;;;;;;;63.38;16.80;;;;;;;;;;6102797;23;20065;-96
2022/10/27 16:25:39;;;;;;;67.07;17.02;;;;;;;;;;6281843;22;20027;-95
2022/10/27 16:28:12;;;;;;;82.47;17.88;;;;;;;;;;6282162;22;20007;-95
2022/10/27 16:30:42;;;;;;;91.75;19.63;;;;;;;;;;6283038;22;20543;-95
2022/10/27 16:33:12;;;;;;;96.75;18.38;;;;;;;;;;6282519;22;20000;-95
2022/10/27 16:35:38;;;;;;;94.13;17.67;;;;;;;;;;6259411;22;20030;-94
2022/10/27 16:38:05;;;;;;;57.60;16.60;;;;;;;;;;6283642;22;20004;-95
2022/10/27 16:40:32;;;;;;;114.72;18.00;;;;;;;;;;6282457;22;20382;-95
2022/10/27 16:43:05;;;;;;;117.63;18.60;;;;;;;;;;6282405;22;20007;-96
2022/10/27 16:45:32;;;;;;;101.95;17.13;;;;;;;;;;6283743;22;20058;-93
2022/10/27 16:47:59;;;;;;;113.57;18.25;;;;;;;;;;6281953;22;20033;-95
2022/10/27 16:50:28;;;;;;;52.95;18.63;;;;;;;;;;6281714;22;20003;-92
2022/10/27 16:52:55;;;;;;;100.05;19.23;;;;;;;;;;6282007;22;20004;-93
2022/10/27 16:55:27;;;;;;;124.20;20.38;;;;;;;;;;6281716;22;20040;-93
2022/10/27 16:57:57;;;;;;;111.30;19.80;;;;;;;;;;6281693;22;20016;-92
2022/10/27 17:00:23;;;;;;;100.50;21.77;;;;;;;;;;6282020;22;20086;-95
2022/10/27 17:02:52;;;;;;;72.75;20.92;;;;;;;;;;6282731;22;20003;-95
2022/10/27 17:05:21;;;;;;;65.95;18.20;;;;;;;;;;6283591;22;20003;-92
2022/10/27 17:07:48;;;;;;;67.60;17.10;;;;;;;;;;6285101;22;20004;-94
2022/10/27 17:10:15;;;;;;;61.65;15.85;;;;;;;;;;6287247;22;20011;-94
2022/10/27 17:12:44;;;;;;;40.83;17.40;;;;;;;;;;6284534;22;20029;-95
2022/10/27 17:15:10;;;;;;;80.90;18.27;;;;;;;;;;6285576;22;20007;-94
2022/10/27 17:17:36;;;;;;;86.70;20.83;;;;;;;;;;6283991;22;20079;-92
2022/10/27 17:20:04;;;;;;;77.18;17.30;;;;;;;;;;6287956;22;19991;-91
2022/10/27 17:22:33;;;;;;;47.88;17.50;;;;;;;;;;6292436;22;20003;-93
2022/10/27 17:25:02;;;;;;;72.72;22.95;;;;;;;;;;6289465;22;20091;-96
2022/10/27 17:27:28;;;;;;;55.42;17.52;;;;;;;;;;6284403;22;20003;-96
2022/10/27 17:29:56;;;;;;;75.57;17.65;;;;;;;;;;6283986;22;19999;-94
2022/10/27 17:32:22;;;;;;;66.97;17.77;;;;;;;;;;6284963;22;20082;-94
2022/10/27 17:34:48;;;;;;;68.47;18.77;;;;;;;;;;6284267;22;20007;-95
2022/10/27 17:37:14;;;;;;;52.03;17.55;;;;;;;;;;6285570;22;20078;-96
2022/10/27 17:39:40;;;;;;;70.45;19.85;;;;;;;;;;6287024;22;20014;-96
2022/10/27 17:42:08;;;;;;;60.40;19.65;;;;;;;;;;6302855;22;20011;-93
2022/10/27 17:44:34;;;;;;;73.00;18.55;;;;;;;;;;6310903;22;20015;-96
2022/10/27 17:47:00;;;;;;;104.05;20.17;;;;;;;;;;6296933;22;20010;-96
2022/10/27 17:49:29;;;;;;;62.38;18.67;;;;;;;;;;6293589;22;20007;-96
2022/10/27 17:51:56;;;;;;;53.47;17.67;;;;;;;;;;6282664;22;20022;-94
2022/10/27 17:54:22;;;;;;;39.20;16.52;;;;;;;;;;6283798;22;20004;-94
2022/10/27 17:56:48;;;;;;;33.47;15.43;;;;;;;;;;6283075;22;20038;-94
2022/10/27 17:59:16;;;;;;;48.33;16.33;;;;;;;;;;6283437;22;20007;-96
2022/10/27 18:01:42;;;;;;;54.63;21.95;;;;;;;;;;6283785;22;20007;-96
2022/10/27 18:04:10;;;;;;;44.85;16.15;;;;;;;;;;6283688;22;20072;-96
2022/10/27 18:06:37;;;;;;;45.70;17.52;;;;;;;;;;6283458;22;20505;-96
2022/10/27 18:09:07;;;;;;;63.05;16.25;;;;;;;;;;6278363;22;20008;-95
2022/10/27 18:11:34;;;;;;;70.88;17.65;;;;;;;;;;6278784;22;19999;-96
2022/10/27 18:14:14;;;;;;;55.42;15.82;;;;;;;;;;6299826;22;20009;-95
2022/10/27 18:16:42;;;;;;;31.95;14.55;;;;;;;;;;6283563;22;20008;-95
2022/10/27 18:19:11;;;;;;;34.20;12.93;;;;;;;;;;6283871;22;20007;-95
2022/10/27 18:21:39;;;;;;;32.17;15.38;;;;;;;;;;6283392;22;20432;-95
2022/10/27 18:24:08;;;;;;;32.85;14.15;;;;;;;;;;6283827;22;20491;-95
2022/10/27 18:26:36;;;;;;;42.17;14.43;;;;;;;;;;6283637;22;20463;-96
2022/10/27 18:29:02;;;;;;;34.17;14.52;;;;;;;;;;6282803;22;20015;-96
2022/10/27 18:31:36;;;;;;;27.52;14.27;;;;;;;;;;6283864;22;20050;-96
2022/10/27 18:34:05;;;;;;;30.15;15.05;;;;;;;;;;6283413;22;20042;-95
2022/10/27 18:36:32;;;;;;;29.00;14.02;;;;;;;;;;6284639;22;20000;-95
2022/10/27 18:39:01;;;;;;;29.77;14.13;;;;;;;;;;6283525;22;20086;-96
2022/10/27 18:41:29;;;;;;;28.60;14.30;;;;;;;;;;6283703;22;20011;-96
2022/10/27 18:43:55;;;;;;;32.75;14.02;;;;;;;;;;6283385;22;20015;-96
2022/10/27 18:46:23;;;;;;;31.05;14.77;;;;;;;;;;6286179;22;20011;-96
2022/10/27 18:48:49;;;;;;;32.70;15.35;;;;;;;;;;6286590;22;20004;-95
2022/10/27 18:51:21;;;;;;;30.65;15.60;;;;;;;;;;6285153;22;19999;-96
2022/10/27 18:54:49;;;;;;;67.00;15.48;;;;;;;;;;6286279;22;19999;-96
2022/10/27 18:57:00;;;;;;;55.58;14.63;;;;;;;;;;6301109;22;20535;-96
2022/10/27 18:59:47;;;;;;;;;;;;;;;;;;;;;
2022/10/27 19:02:35;;;;;;;58.05;16.05;;;;;;;;;;6273106;22;20018;-96
2022/10/27 19:08:14;;;;;;;49.20;15.68;;;;;;;;;;6327464;22;20021;-96
2022/10/27 19:11:25;;;;;;;34.75;13.35;;;;;;;;;;6230367;23;20043;-95
2022/10/27 19:16:55;;;;;;;52.22;15.27;;;;;;;;;;6217133;23;20050;-96
2022/10/27 19:22:31;;;;;;;59.80;13.23;;;;;;;;;;6180938;22;20415;-95
2022/10/27 19:25:07;;;;;;;104.18;16.10;;;;;;;;;;6292270;22;20041;-96
2022/10/27 19:27:43;;;;;;;34.00;13.38;;;;;;;;;;6288738;22;20000;-96
2022/10/27 19:30:43;;;;;;;;;;;;;;;;;;;;;
2022/10/27 19:33:28;;;;;;;;;;;;;;;;;;;;;
2022/10/27 19:39:06;;;;;;;26.52;12.40;;;;;;;;;;6224770;23;20019;-95
2022/10/27 19:41:38;;;;;;;34.35;12.57;;;;;;;;;;6192055;23;20031;-93
2022/10/27 19:44:05;;;;;;;38.28;13.40;;;;;;;;;;6193402;22;20016;-96
2022/10/27 20:16:09;;;;;;;;;;;;;;;;;;;;;
